createdAt,value
2018-02-16T00:01:00.502Z,32.33
2018-02-16T00:03:27.957Z,31.77
2018-02-16T00:05:55.415Z,32.00
2018-02-16T00:08:22.865Z,34.03
2018-02-16T00:10:50.321Z,34.67
2018-02-16T00:13:18.381Z,32.93
2018-02-16T00:15:46.118Z,35.57
2018-02-16T00:18:14.607Z,31.83
2018-02-16T00:20:43.365Z,34.67
2018-02-16T00:23:11.581Z,34.50
2018-02-16T00:25:39.751Z,34.27
2018-02-16T00:28:07.210Z,34.10
2018-02-16T00:30:35.225Z,32.63
2018-02-16T00:33:02.681Z,35.63
2018-02-16T00:35:30.129Z,35.80
2018-02-16T00:37:57.593Z,36.93
2018-02-16T00:40:25.046Z,33.63
2018-02-16T00:42:52.951Z,34.70
2018-02-16T00:45:20.392Z,32.80
2018-02-16T00:47:48.624Z,29.60
2018-02-16T00:50:16.073Z,29.77
2018-02-16T00:52:44.832Z,29.63
2018-02-16T00:55:12.281Z,31.43
2018-02-16T00:57:39.725Z,30.07
2018-02-16T01:00:07.945Z,35.30
2018-02-16T01:02:35.400Z,31.23
2018-02-16T01:05:03.431Z,33.20
2018-02-16T01:07:30.846Z,34.67
2018-02-16T01:09:58.302Z,33.93
2018-02-16T01:12:25.753Z,31.60
2018-02-16T01:14:53.212Z,29.90
2018-02-16T01:17:21.106Z,29.83
2018-02-16T01:19:49.321Z,26.80
2018-02-16T01:22:16.773Z,27.57
2018-02-16T01:24:44.224Z,26.70
2018-02-16T01:27:12.248Z,29.47
2018-02-16T01:29:39.720Z,32.60
2018-02-16T01:32:07.937Z,37.07
2018-02-16T01:34:35.819Z,38.40
2018-02-16T01:37:03.286Z,33.73
2018-02-16T01:39:31.165Z,32.03
2018-02-16T01:41:58.617Z,30.70
2018-02-16T01:44:26.078Z,30.13
2018-02-16T01:46:53.527Z,26.97
2018-02-16T01:49:21.633Z,29.20
2018-02-16T01:51:49.099Z,32.70
2018-02-16T01:54:16.541Z,27.77
2018-02-16T01:56:44.766Z,30.83
2018-02-16T01:59:12.632Z,32.97
2018-02-16T02:01:40.096Z,34.10
2018-02-16T02:04:07.551Z,31.00
2018-02-16T02:06:36.502Z,33.60
2018-02-16T02:09:03.960Z,38.80
2018-02-16T02:11:31.967Z,36.23
2018-02-16T02:13:59.423Z,36.50
2018-02-16T02:16:26.873Z,33.57
2018-02-16T02:18:54.342Z,32.23
2018-02-16T02:21:22.565Z,34.53
2018-02-16T02:23:50.782Z,34.13
2018-02-16T02:26:18.671Z,32.27
2018-02-16T02:28:46.112Z,31.03
2018-02-16T02:31:13.586Z,30.47
2018-02-16T02:33:41.611Z,33.00
2018-02-16T02:36:09.062Z,42.93
2018-02-16T02:38:36.937Z,43.03
2018-02-16T02:41:04.397Z,44.30
2018-02-16T02:43:32.132Z,40.10
2018-02-16T02:46:00.145Z,44.13
2018-02-16T02:48:27.618Z,45.80
2018-02-16T02:50:55.060Z,37.30
2018-02-16T02:53:22.516Z,32.80
2018-02-16T02:55:50.300Z,29.87
2018-02-16T02:58:17.741Z,28.60
2018-02-16T03:00:45.218Z,25.87
2018-02-16T03:03:13.429Z,26.90
2018-02-16T03:05:40.886Z,28.93
2018-02-16T03:08:09.155Z,29.73
2018-02-16T03:10:36.626Z,30.60
2018-02-16T03:13:04.086Z,31.63
2018-02-16T03:15:31.969Z,27.77
2018-02-16T03:17:59.865Z,30.00
2018-02-16T03:20:27.889Z,34.17
2018-02-16T03:22:56.113Z,33.30
2018-02-16T03:25:24.769Z,33.97
2018-02-16T03:27:52.231Z,31.40
2018-02-16T03:30:19.690Z,30.50
2018-02-16T03:32:47.572Z,27.53
2018-02-16T03:35:15.796Z,28.70
2018-02-16T03:37:43.253Z,32.40
2018-02-16T03:40:10.724Z,29.47
2018-02-16T03:42:38.181Z,27.97
2018-02-16T03:45:06.399Z,28.80
2018-02-16T03:47:34.617Z,29.30
2018-02-16T03:50:02.109Z,26.93
2018-02-16T03:52:29.564Z,31.80
2018-02-16T03:54:57.022Z,30.30
2018-02-16T03:57:24.473Z,27.77
2018-02-16T03:59:51.929Z,27.87
2018-02-16T04:02:19.391Z,28.03
2018-02-16T04:04:46.919Z,24.40
2018-02-16T04:07:14.372Z,23.17
2018-02-16T04:09:41.848Z,23.57
2018-02-16T04:12:09.304Z,21.73
2018-02-16T04:14:36.765Z,18.63
2018-02-16T04:17:04.933Z,24.83
2018-02-16T04:19:32.665Z,26.53
2018-02-16T04:22:00.122Z,27.60
2018-02-16T04:24:27.575Z,23.50
2018-02-16T04:26:57.610Z,27.20
2018-02-16T04:29:25.070Z,29.20
2018-02-16T04:31:52.528Z,29.17
2018-02-16T04:34:20.759Z,33.47
2018-02-16T04:36:50.669Z,30.53
2018-02-16T04:39:18.128Z,32.93
2018-02-16T04:41:46.018Z,32.77
2018-02-16T04:44:13.480Z,32.43
2018-02-16T04:46:40.929Z,27.83
2018-02-16T04:49:09.199Z,27.50
2018-02-16T04:51:36.653Z,28.87
2018-02-16T04:54:04.663Z,30.20
2018-02-16T04:56:32.126Z,26.83
2018-02-16T04:58:59.584Z,31.10
2018-02-16T05:01:27.050Z,37.53
2018-02-16T05:03:54.942Z,30.23
2018-02-16T05:06:25.018Z,41.43
2018-02-16T05:08:52.900Z,49.67
2018-02-16T05:11:20.894Z,32.40
2018-02-16T05:13:48.353Z,25.33
2018-02-16T05:16:15.814Z,23.40
2018-02-16T05:18:43.701Z,25.80
2018-02-16T05:21:11.722Z,20.83
2018-02-16T05:23:39.949Z,21.17
2018-02-16T05:26:07.397Z,25.43
2018-02-16T05:28:34.861Z,29.23
2018-02-16T05:31:02.314Z,24.30
2018-02-16T05:33:29.777Z,29.23
2018-02-16T05:35:57.236Z,24.20
2018-02-16T05:38:28.540Z,22.33
2018-02-16T05:40:56.019Z,27.60
2018-02-16T05:43:23.467Z,21.50
2018-02-16T05:45:50.928Z,19.17
2018-02-16T05:48:18.389Z,19.60
2018-02-16T05:50:52.345Z,28.07
2018-02-16T05:53:20.343Z,28.30
2018-02-16T05:55:49.107Z,27.20
2018-02-16T05:58:16.979Z,33.30
2018-02-16T06:00:46.867Z,26.40
2018-02-16T06:03:14.749Z,28.37
2018-02-16T06:05:42.208Z,37.37
2018-02-16T06:08:10.173Z,33.07
2018-02-16T06:10:37.633Z,49.63
2018-02-16T06:13:05.709Z,44.03
2018-02-16T06:15:33.942Z,38.50
2018-02-16T06:18:01.401Z,50.73
2018-02-16T06:20:28.893Z,51.13
2018-02-16T06:22:56.781Z,43.60
2018-02-16T06:25:24.237Z,51.10
2018-02-16T06:27:51.699Z,41.23
2018-02-16T06:30:19.684Z,34.13
2018-02-16T06:32:47.577Z,42.57
2018-02-16T06:35:15.029Z,45.03
2018-02-16T06:37:43.195Z,28.07
2018-02-16T06:40:12.356Z,29.83
2018-02-16T06:42:39.823Z,38.97
2018-02-16T06:45:08.337Z,35.93
2018-02-16T06:47:35.801Z,43.07
2018-02-16T06:50:03.266Z,36.83
2018-02-16T06:52:31.293Z,32.23
2018-02-16T06:54:59.192Z,30.27
2018-02-16T06:57:27.373Z,28.77
2018-02-16T06:59:54.843Z,34.30
2018-02-16T07:02:22.309Z,41.50
2018-02-16T07:04:50.530Z,40.07
2018-02-16T07:07:17.988Z,30.67
2018-02-16T07:09:45.444Z,28.77
2018-02-16T07:12:12.905Z,38.93
2018-02-16T07:14:40.369Z,41.43
2018-02-16T07:17:07.833Z,43.73
2018-02-16T07:19:36.296Z,38.53
2018-02-16T07:22:04.328Z,46.83
2018-02-16T07:24:31.789Z,52.03
2018-02-16T07:26:59.265Z,42.90
2018-02-16T07:29:26.725Z,30.50
2018-02-16T07:31:54.809Z,27.23
2018-02-16T07:34:22.853Z,37.97
2018-02-16T07:36:50.850Z,37.20
2018-02-16T07:39:18.308Z,28.87
2018-02-16T07:41:46.043Z,29.40
2018-02-16T07:44:13.510Z,41.40
2018-02-16T07:46:42.169Z,37.80
2018-02-16T07:49:10.406Z,36.37
2018-02-16T07:51:38.124Z,33.57
2018-02-16T07:54:05.581Z,45.83
2018-02-16T07:56:33.035Z,45.20
2018-02-16T07:59:00.497Z,45.60
2018-02-16T08:01:28.525Z,41.77
2018-02-16T08:03:55.973Z,44.63
2018-02-16T08:06:23.441Z,40.10
2018-02-16T08:08:51.670Z,38.03
2018-02-16T08:11:21.693Z,43.27
2018-02-16T08:13:49.169Z,34.57
2018-02-16T08:16:16.625Z,39.13
2018-02-16T08:18:44.084Z,29.60
2018-02-16T08:21:11.538Z,33.90
2018-02-16T08:23:38.992Z,26.70
2018-02-16T08:26:06.458Z,24.93
2018-02-16T08:28:33.910Z,27.50
2018-02-16T08:31:01.806Z,23.77
2018-02-16T08:33:30.098Z,22.10
2018-02-16T08:35:57.560Z,21.37
2018-02-16T08:38:25.018Z,21.77
2018-02-16T08:40:52.480Z,24.80
2018-02-16T08:43:20.675Z,22.60
2018-02-16T08:45:48.150Z,19.43
2018-02-16T08:48:15.597Z,17.93
2018-02-16T08:50:43.462Z,18.57
2018-02-16T08:53:11.133Z,18.03
2018-02-16T08:55:38.583Z,16.93
2018-02-16T08:58:06.030Z,16.83
2018-02-16T09:00:33.703Z,14.40
2018-02-16T09:03:01.713Z,14.40
2018-02-16T09:05:29.594Z,14.00
2018-02-16T09:07:57.473Z,13.33
2018-02-16T09:10:25.141Z,14.03
2018-02-16T09:12:52.625Z,13.00
2018-02-16T09:15:20.082Z,13.67
2018-02-16T09:17:47.528Z,12.20
2018-02-16T09:20:15.048Z,13.13
2018-02-16T09:22:42.501Z,14.33
2018-02-16T09:25:09.979Z,13.30
2018-02-16T09:27:37.429Z,16.00
2018-02-16T09:30:06.150Z,13.43
2018-02-16T09:32:33.605Z,14.77
2018-02-16T09:35:01.060Z,13.90
2018-02-16T09:37:29.315Z,15.77
2018-02-16T09:39:57.462Z,16.30
2018-02-16T09:42:24.920Z,13.73
2018-02-16T09:44:52.373Z,13.47
2018-02-16T09:47:19.837Z,12.93
2018-02-16T09:49:47.291Z,12.17
2018-02-16T09:52:15.321Z,11.57
2018-02-16T09:54:43.551Z,13.70
2018-02-16T09:57:11.024Z,12.50
2018-02-16T09:59:38.473Z,14.20
2018-02-16T10:02:05.937Z,13.63
2018-02-16T10:04:33.825Z,10.87
2018-02-16T10:07:02.050Z,12.30
2018-02-16T10:09:30.037Z,13.70
2018-02-16T10:11:57.500Z,14.10
2018-02-16T10:14:24.951Z,11.27
2018-02-16T10:16:52.401Z,11.00
2018-02-16T10:19:19.862Z,9.50
2018-02-16T10:21:47.316Z,10.07
2018-02-16T10:24:15.074Z,8.90
2018-02-16T10:26:42.523Z,9.07
2018-02-16T10:29:09.960Z,8.90
2018-02-16T10:31:37.421Z,8.53
2018-02-16T10:34:05.862Z,9.40
2018-02-16T10:36:34.073Z,11.50
2018-02-16T10:39:02.220Z,10.70
2018-02-16T10:41:30.441Z,11.50
2018-02-16T10:43:58.109Z,12.37
2018-02-16T10:46:25.564Z,12.63
2018-02-16T10:48:55.469Z,13.33
2018-02-16T10:51:23.132Z,12.87
2018-02-16T10:53:53.732Z,13.97
2018-02-16T10:56:21.613Z,12.83
2018-02-16T10:58:49.476Z,12.17
2018-02-16T11:01:18.822Z,13.23
2018-02-16T11:03:51.937Z,18.70
2018-02-16T11:06:26.281Z,17.30
2018-02-16T11:09:01.241Z,14.83
2018-02-16T11:11:29.488Z,17.97
2018-02-16T11:13:57.341Z,14.40
2018-02-16T11:16:24.805Z,15.17
2018-02-16T11:18:52.248Z,15.57
2018-02-16T11:21:19.722Z,14.53
2018-02-16T11:23:47.176Z,15.27
2018-02-16T11:26:14.637Z,17.63
2018-02-16T11:28:42.401Z,16.60
2018-02-16T11:31:12.685Z,14.20
2018-02-16T11:33:40.917Z,14.20
2018-02-16T11:36:08.758Z,14.60
2018-02-16T11:38:36.202Z,14.37
2018-02-16T11:41:04.087Z,12.87
2018-02-16T11:43:31.542Z,13.27
2018-02-16T11:45:59.001Z,15.53
2018-02-16T11:48:26.449Z,15.20
2018-02-16T11:50:54.204Z,14.20
2018-02-16T11:53:21.666Z,14.07
2018-02-16T11:55:49.538Z,13.80
2018-02-16T11:58:17.541Z,13.47
2018-02-16T12:00:45.541Z,14.70
2018-02-16T12:03:14.033Z,15.50
2018-02-16T12:05:42.254Z,14.63
2018-02-16T12:08:09.709Z,14.80
2018-02-16T12:10:37.165Z,14.63
2018-02-16T12:13:05.254Z,15.13
2018-02-16T12:15:33.141Z,13.83
2018-02-16T12:18:01.492Z,15.33
2018-02-16T12:20:31.389Z,15.00
2018-02-16T12:22:58.865Z,13.40
2018-02-16T12:25:26.326Z,14.17
2018-02-16T12:27:54.044Z,12.73
2018-02-16T12:30:21.502Z,14.85
2018-02-16T12:32:51.062Z,13.40
2018-02-16T12:35:19.305Z,12.52
2018-02-16T12:37:46.769Z,11.80
2018-02-16T12:40:14.232Z,11.85
2018-02-16T12:42:41.701Z,11.93
2018-02-16T12:45:09.154Z,11.57
2018-02-16T12:47:36.761Z,10.82
2018-02-16T12:50:04.223Z,13.13
2018-02-16T12:52:32.216Z,13.52
2018-02-16T12:55:00.460Z,14.27
2018-02-16T12:57:29.745Z,13.00
2018-02-16T12:59:57.203Z,13.45
2018-02-16T13:02:24.657Z,10.50
2018-02-16T13:04:52.232Z,10.82
2018-02-16T13:07:19.819Z,9.98
2018-02-16T13:09:47.831Z,10.95
2018-02-16T13:12:16.057Z,10.43
2018-02-16T13:14:43.972Z,10.48
2018-02-16T13:17:12.217Z,9.95
2018-02-16T13:19:39.764Z,9.88
2018-02-16T13:22:07.229Z,10.93
2018-02-16T13:24:34.692Z,8.77
2018-02-16T13:27:02.157Z,9.85
2018-02-16T13:29:30.047Z,10.07
2018-02-16T13:31:57.562Z,10.52
2018-02-16T13:34:25.413Z,9.55
2018-02-16T13:36:53.289Z,10.13
2018-02-16T13:39:20.745Z,9.43
2018-02-16T13:41:49.141Z,8.77
2018-02-16T13:44:16.686Z,9.57
2018-02-16T13:46:44.681Z,9.07
2018-02-16T13:49:19.564Z,9.05
2018-02-16T13:51:47.017Z,3.87
2018-02-16T13:54:15.039Z,4.05
2018-02-16T13:56:44.135Z,5.00
2018-02-16T13:59:11.601Z,5.50
2018-02-16T14:01:39.809Z,5.50
2018-02-16T14:04:07.298Z,4.63
2018-02-16T14:06:34.754Z,4.60
2018-02-16T14:09:02.306Z,7.57
2018-02-16T14:11:29.862Z,4.83
2018-02-16T14:13:57.314Z,3.97
2018-02-16T14:16:24.770Z,4.47
2018-02-16T14:18:52.221Z,4.27
2018-02-16T14:21:19.945Z,3.63
2018-02-16T14:23:48.157Z,4.10
2018-02-16T14:26:15.626Z,4.00
2018-02-16T14:28:43.077Z,4.43
2018-02-16T14:31:10.530Z,4.77
2018-02-16T14:33:38.373Z,3.87
2018-02-16T14:36:05.809Z,4.37
2018-02-16T14:38:33.319Z,4.20
2018-02-16T14:41:00.762Z,4.77
2018-02-16T14:43:28.212Z,4.30
2018-02-16T14:45:55.667Z,3.53
2018-02-16T14:48:23.657Z,3.93
2018-02-16T14:50:51.218Z,3.60
2018-02-16T14:53:19.474Z,2.93
2018-02-16T14:55:46.941Z,3.70
2018-02-16T14:58:14.842Z,3.50
2018-02-16T15:00:43.066Z,3.70
2018-02-16T15:03:10.838Z,3.40
2018-02-16T15:05:38.308Z,3.03
2018-02-16T15:08:05.761Z,2.93
2018-02-16T15:10:33.312Z,3.43
2018-02-16T15:13:01.091Z,3.97
2018-02-16T15:15:29.044Z,3.50
2018-02-16T15:17:56.962Z,3.43
2018-02-16T15:20:24.649Z,3.93
2018-02-16T15:22:52.104Z,3.53
2018-02-16T15:25:19.556Z,3.47
2018-02-16T15:27:47.049Z,4.00
2018-02-16T15:30:14.921Z,3.33
2018-02-16T15:32:42.366Z,3.47
2018-02-16T15:35:10.128Z,3.40
2018-02-16T15:37:38.531Z,3.27
2018-02-16T15:40:05.949Z,3.07
2018-02-16T15:42:33.420Z,3.37
2018-02-16T15:45:00.881Z,3.03
2018-02-16T15:47:28.746Z,3.10
2018-02-16T15:49:56.200Z,2.60
2018-02-16T15:52:23.654Z,2.87
2018-02-16T15:54:51.113Z,3.40
2018-02-16T15:57:18.969Z,3.60
2018-02-16T15:59:46.835Z,3.83
2018-02-16T16:02:14.401Z,3.57
2018-02-16T16:04:41.852Z,3.20
2018-02-16T16:07:09.292Z,2.97
2018-02-16T16:09:36.745Z,3.37
2018-02-16T16:12:04.758Z,3.93
2018-02-16T16:14:32.264Z,3.30
2018-02-16T16:17:00.232Z,3.30
2018-02-16T16:19:28.294Z,4.00
2018-02-16T16:21:55.797Z,2.80
2018-02-16T16:24:23.684Z,3.33
2018-02-16T16:26:52.210Z,3.13
2018-02-16T16:29:20.232Z,2.93
2018-02-16T16:31:48.166Z,3.13
2018-02-16T16:34:15.585Z,3.40
2018-02-16T16:36:43.098Z,3.50
2018-02-16T16:39:10.977Z,3.63
2018-02-16T16:41:38.446Z,3.20
2018-02-16T16:44:06.655Z,3.63
2018-02-16T16:46:34.509Z,4.80
2018-02-16T16:49:01.994Z,4.80
2018-02-16T16:51:29.430Z,7.70
2018-02-16T16:53:56.893Z,8.43
2018-02-16T16:56:24.386Z,10.23
2018-02-16T16:58:51.838Z,8.97
2018-02-16T17:01:19.280Z,9.97
2018-02-16T17:03:47.501Z,10.77
2018-02-16T17:06:15.724Z,9.73
2018-02-16T17:08:43.876Z,10.47
2018-02-16T17:11:11.338Z,10.90
2018-02-16T17:13:38.789Z,11.03
2018-02-16T17:16:06.866Z,12.63
2018-02-16T17:18:35.019Z,13.43
2018-02-16T17:21:02.473Z,13.27
2018-02-16T17:23:29.929Z,13.57
2018-02-16T17:25:57.372Z,13.40
2018-02-16T17:28:25.606Z,13.63
2018-02-16T17:30:54.057Z,15.57
2018-02-16T17:33:22.592Z,15.40
2018-02-16T17:35:50.489Z,14.53
2018-02-16T17:38:17.944Z,15.80
2018-02-16T17:40:45.392Z,17.83
2018-02-16T17:43:14.100Z,20.50
2018-02-16T17:45:41.559Z,21.43
2018-02-16T17:48:09.007Z,21.20
2018-02-16T17:50:36.456Z,21.10
2018-02-16T17:53:04.448Z,21.40
2018-02-16T17:55:31.897Z,20.87
2018-02-16T17:57:59.352Z,19.00
2018-02-16T18:00:26.805Z,20.83
2018-02-16T18:02:56.174Z,20.23
2018-02-16T18:05:24.638Z,21.03
2018-02-16T18:07:52.087Z,23.13
2018-02-16T18:10:19.534Z,22.90
2018-02-16T18:12:47.529Z,22.00
2018-02-16T18:15:15.747Z,21.33
2018-02-16T18:17:43.832Z,21.77
2018-02-16T18:20:11.296Z,20.07
2018-02-16T18:22:38.752Z,21.43
2018-02-16T18:25:06.209Z,21.57
2018-02-16T18:27:33.658Z,23.13
2018-02-16T18:30:01.115Z,24.47
2018-02-16T18:32:28.960Z,25.73
2018-02-16T18:34:56.431Z,24.20
2018-02-16T18:37:24.192Z,23.07
2018-02-16T18:39:52.433Z,24.10
2018-02-16T18:42:20.120Z,26.50
2018-02-16T18:44:47.565Z,22.70
2018-02-16T18:47:15.022Z,21.30
2018-02-16T18:49:42.613Z,20.83
2018-02-16T18:52:10.085Z,20.70
2018-02-16T18:54:41.431Z,22.23
2018-02-16T18:57:09.141Z,23.00
2018-02-16T18:59:36.602Z,21.03
2018-02-16T19:02:04.065Z,18.30
2018-02-16T19:04:32.078Z,16.83
2018-02-16T19:06:59.592Z,18.73
2018-02-16T19:09:27.818Z,19.07
2018-02-16T19:11:55.273Z,21.37
2018-02-16T19:14:22.720Z,24.67
2018-02-16T19:16:50.516Z,24.40
2018-02-16T19:19:18.987Z,23.57
2018-02-16T19:21:46.516Z,20.43
2018-02-16T19:24:14.436Z,18.90
2018-02-16T19:26:42.451Z,17.30
2018-02-16T19:29:09.913Z,16.03
2018-02-16T19:31:41.456Z,14.80
2018-02-16T19:34:08.920Z,16.73
2018-02-16T19:36:38.458Z,20.17
2018-02-16T19:39:06.677Z,19.47
2018-02-16T19:41:34.749Z,18.17
2018-02-16T19:44:02.213Z,18.63
2018-02-16T19:46:29.685Z,29.40
2018-02-16T19:48:57.141Z,27.00
2018-02-16T19:51:24.605Z,51.17
2018-02-16T19:53:52.065Z,32.60
2018-02-16T19:56:19.525Z,42.13
2018-02-16T19:58:48.197Z,48.83
2018-02-16T20:01:15.652Z,43.57
2018-02-16T20:03:43.257Z,53.03
2018-02-16T20:06:11.301Z,59.40
2018-02-16T20:08:39.539Z,46.93
2018-02-16T20:11:07.005Z,38.97
2018-02-16T20:13:34.472Z,61.37
2018-02-16T20:16:02.547Z,82.87
2018-02-16T20:18:30.012Z,71.27
2018-02-16T20:20:58.253Z,35.83
2018-02-16T20:23:26.494Z,36.37
2018-02-16T20:25:54.226Z,41.10
2018-02-16T20:28:21.680Z,34.57
2018-02-16T20:30:49.901Z,36.23
2018-02-16T20:33:19.973Z,40.50
2018-02-16T20:35:48.643Z,59.10
2018-02-16T20:38:16.241Z,49.33
2018-02-16T20:40:43.708Z,41.53
2018-02-16T20:43:11.169Z,42.50
2018-02-16T20:45:39.218Z,39.83
2018-02-16T20:48:06.745Z,43.80
2018-02-16T20:50:34.169Z,42.23
2018-02-16T20:53:01.635Z,46.00
2018-02-16T20:55:29.110Z,37.03
2018-02-16T20:57:59.017Z,39.70
2018-02-16T21:00:26.489Z,40.63
2018-02-16T21:02:53.958Z,42.60
2018-02-16T21:05:22.413Z,39.10
2018-02-16T21:07:49.871Z,40.27
2018-02-16T21:10:17.335Z,37.20
2018-02-16T21:12:44.802Z,37.77
2018-02-16T21:15:13.074Z,35.17
2018-02-16T21:17:40.522Z,34.13
2018-02-16T21:20:07.983Z,30.70
2018-02-16T21:22:35.445Z,32.03
2018-02-16T21:25:02.905Z,32.93
2018-02-16T21:27:31.130Z,35.57
2018-02-16T21:30:01.173Z,39.20
2018-02-16T21:32:29.448Z,34.73
2018-02-16T21:34:58.442Z,30.37
2018-02-16T21:37:25.904Z,35.43
2018-02-16T21:39:54.135Z,37.53
2018-02-16T21:42:21.632Z,35.57
2018-02-16T21:44:49.478Z,35.33
2018-02-16T21:47:16.937Z,34.70
2018-02-16T21:49:44.505Z,34.43
2018-02-16T21:52:11.964Z,31.93
2018-02-16T21:54:39.517Z,30.00
2018-02-16T21:57:06.980Z,35.60
2018-02-16T21:59:35.213Z,35.17
2018-02-16T22:02:02.690Z,37.83
2018-02-16T22:04:33.070Z,35.23
2018-02-16T22:07:01.928Z,33.17
2018-02-16T22:09:29.412Z,29.97
2018-02-16T22:11:58.105Z,33.07
2018-02-16T22:14:26.344Z,29.63
2018-02-16T22:16:55.321Z,29.33
2018-02-16T22:19:22.804Z,29.00
2018-02-16T22:21:50.253Z,27.83
2018-02-16T22:24:17.729Z,27.43
2018-02-16T22:26:45.953Z,27.23
2018-02-16T22:29:13.409Z,27.57
2018-02-16T22:31:40.868Z,30.47
2018-02-16T22:34:08.346Z,32.70
2018-02-16T22:36:36.245Z,30.67
2018-02-16T22:39:04.469Z,29.90
2018-02-16T22:41:31.956Z,33.47
2018-02-16T22:44:00.186Z,30.80
2018-02-16T22:46:27.641Z,27.80
2018-02-16T22:48:55.117Z,27.87
2018-02-16T22:51:22.584Z,28.57
2018-02-16T22:53:50.107Z,28.10
2018-02-16T22:56:18.013Z,25.43
2018-02-16T22:58:46.249Z,29.97
2018-02-16T23:01:13.718Z,30.67
2018-02-16T23:03:41.197Z,29.73
2018-02-16T23:06:08.652Z,27.97
2018-02-16T23:08:36.212Z,26.73
2018-02-16T23:11:03.936Z,29.00
2018-02-16T23:13:31.393Z,26.27
2018-02-16T23:15:59.620Z,30.20
2018-02-16T23:18:27.073Z,26.70
2018-02-16T23:20:54.539Z,27.23
2018-02-16T23:23:22.760Z,28.13
2018-02-16T23:25:50.226Z,27.97
2018-02-16T23:28:17.689Z,30.33
2018-02-16T23:30:47.049Z,29.60
2018-02-16T23:33:15.268Z,28.87
2018-02-16T23:35:42.737Z,31.27
2018-02-16T23:38:11.670Z,29.03
2018-02-16T23:40:39.557Z,30.20
2018-02-16T23:43:06.961Z,28.63
2018-02-16T23:45:34.998Z,28.33
2018-02-16T23:48:05.661Z,27.83
2018-02-16T23:50:33.133Z,25.93
2018-02-16T23:53:02.819Z,25.43
2018-02-16T23:55:30.313Z,26.70
2018-02-16T23:57:58.300Z,26.20
